createdAt,value
2018-12-14T00:00:41.989Z,2.50
2018-12-14T00:03:11.202Z,2.43
2018-12-14T00:05:40.350Z,2.40
2018-12-14T00:08:09.547Z,2.50
2018-12-14T00:10:38.712Z,2.50
2018-12-14T00:13:14.411Z,2.50
2018-12-14T00:15:43.598Z,2.87
2018-12-14T00:18:12.793Z,2.33
2018-12-14T00:20:41.956Z,2.70
2018-12-14T00:23:11.153Z,2.70
2018-12-14T00:25:40.314Z,2.70
2018-12-14T00:28:09.580Z,3.13
2018-12-14T00:30:38.818Z,2.97
2018-12-14T00:33:07.980Z,3.03
2018-12-14T00:35:37.223Z,2.80
2018-12-14T00:38:06.443Z,2.57
2018-12-14T00:40:35.605Z,2.80
2018-12-14T00:43:04.753Z,2.73
2018-12-14T00:45:33.899Z,2.97
2018-12-14T00:48:03.168Z,2.73
2018-12-14T00:50:32.332Z,2.80
2018-12-14T00:53:01.540Z,2.83
2018-12-14T00:55:30.707Z,2.90
2018-12-14T00:57:59.954Z,2.80
2018-12-14T01:00:29.165Z,2.67
2018-12-14T01:02:58.354Z,2.77
2018-12-14T01:05:27.520Z,3.53
2018-12-14T01:07:56.827Z,2.97
2018-12-14T01:10:26.019Z,3.10
2018-12-14T01:12:55.348Z,2.70
2018-12-14T01:15:24.528Z,3.23
2018-12-14T01:17:53.726Z,3.10
2018-12-14T01:20:22.892Z,2.87
2018-12-14T01:22:52.038Z,2.70
2018-12-14T01:25:21.205Z,3.00
2018-12-14T01:27:50.687Z,3.07
2018-12-14T01:30:20.011Z,2.93
2018-12-14T01:32:49.185Z,3.10
2018-12-14T01:35:18.355Z,3.30
2018-12-14T01:37:47.541Z,3.17
2018-12-14T01:40:16.707Z,2.83
2018-12-14T01:42:45.875Z,3.50
2018-12-14T01:45:15.031Z,3.00
2018-12-14T01:47:44.233Z,3.30
2018-12-14T01:50:13.389Z,2.60
2018-12-14T01:52:42.587Z,3.23
2018-12-14T01:55:11.891Z,3.47
2018-12-14T01:57:41.458Z,3.13
2018-12-14T02:00:10.693Z,3.97
2018-12-14T02:02:39.858Z,3.50
2018-12-14T02:05:09.024Z,3.40
2018-12-14T02:07:38.270Z,3.70
2018-12-14T02:10:07.500Z,3.27
2018-12-14T02:12:36.646Z,3.50
2018-12-14T02:15:05.891Z,3.77
2018-12-14T02:17:35.106Z,3.27
2018-12-14T02:20:04.307Z,3.30
2018-12-14T02:22:33.525Z,3.50
2018-12-14T02:25:02.683Z,3.40
2018-12-14T02:27:31.882Z,3.57
2018-12-14T02:30:10.751Z,3.37
2018-12-14T02:32:40.030Z,3.60
2018-12-14T02:35:09.238Z,3.60
2018-12-14T02:37:38.460Z,3.73
2018-12-14T02:40:07.795Z,3.60
2018-12-14T02:42:36.939Z,3.53
2018-12-14T02:45:06.499Z,3.77
2018-12-14T02:47:35.703Z,3.50
2018-12-14T02:50:07.724Z,3.47
2018-12-14T02:52:36.869Z,3.83
2018-12-14T02:55:06.055Z,3.20
2018-12-14T02:57:35.263Z,3.67
2018-12-14T03:00:04.692Z,3.90
2018-12-14T03:02:33.864Z,3.77
2018-12-14T03:05:03.154Z,3.60
2018-12-14T03:07:32.387Z,3.40
2018-12-14T03:10:01.553Z,3.77
2018-12-14T03:12:30.785Z,3.50
2018-12-14T03:14:59.963Z,3.93
2018-12-14T03:17:29.493Z,3.30
2018-12-14T03:19:58.908Z,3.53
2018-12-14T03:22:28.443Z,3.90
2018-12-14T03:24:57.623Z,3.40
2018-12-14T03:27:26.867Z,3.87
2018-12-14T03:29:56.000Z,3.70
2018-12-14T03:32:25.318Z,3.73
2018-12-14T03:34:54.582Z,3.80
2018-12-14T03:37:23.836Z,4.00
2018-12-14T03:39:52.989Z,3.87
2018-12-14T03:42:22.149Z,3.80
2018-12-14T03:44:51.378Z,3.67
2018-12-14T03:47:20.584Z,3.40
2018-12-14T03:49:49.744Z,3.73
2018-12-14T03:52:18.902Z,3.50
2018-12-14T03:54:48.036Z,3.80
2018-12-14T03:57:17.236Z,3.80
2018-12-14T03:59:46.379Z,3.90
2018-12-14T04:02:15.654Z,3.53
2018-12-14T04:04:44.831Z,3.70
2018-12-14T04:07:14.055Z,3.57
2018-12-14T04:09:43.327Z,3.40
2018-12-14T04:12:12.479Z,4.00
2018-12-14T04:14:41.622Z,4.13
2018-12-14T04:17:10.965Z,3.37
2018-12-14T04:19:40.123Z,3.80
2018-12-14T04:22:09.277Z,3.80
2018-12-14T04:24:38.413Z,3.70
2018-12-14T04:27:07.559Z,3.63
2018-12-14T04:29:36.707Z,3.67
2018-12-14T04:32:05.869Z,3.90
2018-12-14T04:34:35.030Z,3.67
2018-12-14T04:37:04.927Z,4.10
2018-12-14T04:39:34.060Z,3.97
2018-12-14T04:42:03.225Z,3.83
2018-12-14T04:44:32.446Z,4.07
2018-12-14T04:47:01.605Z,3.80
2018-12-14T04:49:31.080Z,4.13
2018-12-14T04:52:02.335Z,3.77
2018-12-14T04:54:31.566Z,3.67
2018-12-14T04:57:00.732Z,3.80
2018-12-14T04:59:29.915Z,3.73
2018-12-14T05:01:59.148Z,4.00
2018-12-14T05:04:28.354Z,3.70
2018-12-14T05:06:57.509Z,4.23
2018-12-14T05:09:26.666Z,3.83
2018-12-14T05:11:56.671Z,3.83
2018-12-14T05:14:26.014Z,4.07
2018-12-14T05:16:55.182Z,3.90
2018-12-14T05:19:24.482Z,3.93
2018-12-14T05:21:54.165Z,4.17
2018-12-14T05:24:26.447Z,4.03
2018-12-14T05:26:56.404Z,4.13
2018-12-14T05:29:25.651Z,4.10
2018-12-14T05:31:54.878Z,4.00
2018-12-14T05:34:24.087Z,4.40
2018-12-14T05:36:53.292Z,3.70
2018-12-14T05:39:22.592Z,3.70
2018-12-14T05:41:51.844Z,3.73
2018-12-14T05:44:21.128Z,4.20
2018-12-14T05:46:50.374Z,4.53
2018-12-14T05:49:19.582Z,5.10
2018-12-14T05:51:48.858Z,4.27
2018-12-14T05:54:18.085Z,4.17
2018-12-14T05:56:47.470Z,4.30
2018-12-14T05:59:16.855Z,3.67
2018-12-14T06:01:46.126Z,3.83
2018-12-14T06:04:15.344Z,4.13
2018-12-14T06:06:44.778Z,4.00
2018-12-14T06:09:14.857Z,4.10
2018-12-14T06:11:44.379Z,4.10
2018-12-14T06:14:13.599Z,4.07
2018-12-14T06:16:42.972Z,3.40
2018-12-14T06:19:13.035Z,4.00
2018-12-14T06:21:42.223Z,3.67
2018-12-14T06:24:11.695Z,3.60
2018-12-14T06:26:40.942Z,3.80
2018-12-14T06:29:10.202Z,3.33
2018-12-14T06:31:39.394Z,3.70
2018-12-14T06:34:08.626Z,3.77
2018-12-14T06:36:37.873Z,3.83
2018-12-14T06:39:07.563Z,3.20
2018-12-14T06:41:37.383Z,3.57
2018-12-14T06:44:06.683Z,3.30
2018-12-14T06:46:35.893Z,3.50
2018-12-14T06:49:05.253Z,3.70
2018-12-14T06:51:34.557Z,3.80
2018-12-14T06:54:03.799Z,3.50
2018-12-14T06:56:33.153Z,3.67
2018-12-14T06:59:02.422Z,3.30
2018-12-14T07:01:31.614Z,3.60
2018-12-14T07:04:00.871Z,3.43
2018-12-14T07:06:30.118Z,3.47
2018-12-14T07:08:59.406Z,3.77
2018-12-14T07:11:28.591Z,3.67
2018-12-14T07:13:57.837Z,3.53
2018-12-14T07:16:27.053Z,3.33
2018-12-14T07:18:56.334Z,3.53
2018-12-14T07:21:25.639Z,3.43
2018-12-14T07:23:55.013Z,3.23
2018-12-14T07:26:24.251Z,3.47
2018-12-14T07:28:53.667Z,3.30
2018-12-14T07:31:23.447Z,3.33
2018-12-14T07:33:52.730Z,3.57
2018-12-14T07:36:21.916Z,3.43
2018-12-14T07:38:51.828Z,3.37
2018-12-14T07:41:21.247Z,3.40
2018-12-14T07:43:50.514Z,3.43
2018-12-14T07:46:20.540Z,3.60
2018-12-14T07:48:51.030Z,3.87
2018-12-14T07:51:20.413Z,3.47
2018-12-14T07:53:49.658Z,3.40
2018-12-14T07:56:18.905Z,3.13
2018-12-14T07:58:48.381Z,3.50
2018-12-14T08:01:18.174Z,3.50
2018-12-14T08:03:47.457Z,3.47
2018-12-14T08:06:16.721Z,3.70
2018-12-14T08:08:46.007Z,3.20
2018-12-14T08:11:15.250Z,3.70
2018-12-14T08:13:44.535Z,3.70
2018-12-14T08:16:13.792Z,3.73
2018-12-14T08:18:43.058Z,3.90
2018-12-14T08:21:12.334Z,3.33
2018-12-14T08:23:41.578Z,3.67
2018-12-14T08:26:10.835Z,3.67
2018-12-14T08:28:40.222Z,3.57
2018-12-14T08:31:09.531Z,3.50
2018-12-14T08:33:39.298Z,3.43
2018-12-14T08:36:08.551Z,3.90
2018-12-14T08:38:37.808Z,3.73
2018-12-14T08:41:07.157Z,3.60
2018-12-14T08:43:41.357Z,3.70
2018-12-14T08:46:07.598Z,3.80
2018-12-14T08:48:36.861Z,3.70
2018-12-14T08:51:06.103Z,3.57
2018-12-14T08:53:35.368Z,3.67
2018-12-14T08:56:04.561Z,3.93
2018-12-14T08:58:33.849Z,3.70
2018-12-14T09:01:03.056Z,3.87
2018-12-14T09:03:32.222Z,3.53
2018-12-14T09:06:01.469Z,3.60
2018-12-14T09:08:30.784Z,3.77
2018-12-14T09:10:59.995Z,3.87
2018-12-14T09:13:29.484Z,4.10
2018-12-14T09:15:58.703Z,4.23
2018-12-14T09:18:28.012Z,3.90
2018-12-14T09:21:01.068Z,4.07
2018-12-14T09:23:28.549Z,4.20
2018-12-14T09:25:57.895Z,3.80
2018-12-14T09:28:27.174Z,3.70
2018-12-14T09:30:56.424Z,3.93
2018-12-14T09:33:25.671Z,4.57
2018-12-14T09:35:54.894Z,3.90
2018-12-14T09:38:24.274Z,3.67
2018-12-14T09:40:53.607Z,3.93
2018-12-14T09:43:22.815Z,3.67
2018-12-14T09:45:52.027Z,3.80
2018-12-14T09:48:21.374Z,4.33
2018-12-14T09:50:50.702Z,3.97
2018-12-14T09:53:19.953Z,4.07
2018-12-14T09:55:49.154Z,3.87
2018-12-14T09:58:18.399Z,3.80
2018-12-14T10:00:47.628Z,4.10
2018-12-14T10:03:16.867Z,3.47
2018-12-14T10:05:46.020Z,4.40
2018-12-14T10:08:15.604Z,3.73
2018-12-14T10:10:45.210Z,4.07
2018-12-14T10:13:14.776Z,4.30
2018-12-14T10:15:44.034Z,4.00
2018-12-14T10:18:13.334Z,4.00
2018-12-14T10:20:42.575Z,4.60
2018-12-14T10:23:11.818Z,4.00
2018-12-14T10:25:41.083Z,4.20
2018-12-14T10:28:10.382Z,4.30
2018-12-14T10:30:39.642Z,3.97
2018-12-14T10:33:09.109Z,4.67
2018-12-14T10:35:38.826Z,4.03
2018-12-14T10:38:08.119Z,4.00
2018-12-14T10:40:38.536Z,4.60
2018-12-14T10:43:07.987Z,4.37
2018-12-14T10:45:37.561Z,4.80
2018-12-14T10:48:06.838Z,4.00
2018-12-14T10:50:39.640Z,4.73
2018-12-14T10:53:12.568Z,4.47
2018-12-14T10:55:42.192Z,4.53
2018-12-14T10:58:11.756Z,4.47
2018-12-14T11:00:45.975Z,4.30
2018-12-14T11:03:15.207Z,4.27
2018-12-14T11:05:44.435Z,4.43
2018-12-14T11:08:13.685Z,4.13
2018-12-14T11:10:42.982Z,4.63
2018-12-14T11:13:12.283Z,4.67
2018-12-14T11:15:41.587Z,4.20
2018-12-14T11:18:10.966Z,4.57
2018-12-14T11:20:40.264Z,4.40
2018-12-14T11:23:09.498Z,4.10
2018-12-14T11:25:38.770Z,4.47
2018-12-14T11:28:09.202Z,4.23
2018-12-14T11:30:38.518Z,4.33
2018-12-14T11:33:07.708Z,4.63
2018-12-14T11:35:36.943Z,4.03
2018-12-14T11:38:06.262Z,4.43
2018-12-14T11:40:35.479Z,4.47
2018-12-14T11:43:04.727Z,4.60
2018-12-14T11:45:34.046Z,4.20
2018-12-14T11:48:03.359Z,4.00
2018-12-14T11:50:32.592Z,3.90
2018-12-14T11:53:01.831Z,4.40
2018-12-14T11:55:31.155Z,4.23
2018-12-14T11:58:00.731Z,4.40
2018-12-14T12:00:29.925Z,3.87
2018-12-14T12:02:59.142Z,4.97
2018-12-14T12:05:28.420Z,4.10
2018-12-14T12:07:58.071Z,4.30
2018-12-14T12:10:27.320Z,4.10
2018-12-14T12:12:56.529Z,4.67
2018-12-14T12:15:25.918Z,4.27
2018-12-14T12:17:55.236Z,4.20
2018-12-14T12:20:24.465Z,4.90
2018-12-14T12:22:53.701Z,4.73
2018-12-14T12:25:22.933Z,4.13
2018-12-14T12:27:52.119Z,5.00
2018-12-14T12:30:21.319Z,4.20
2018-12-14T12:32:50.565Z,4.63
2018-12-14T12:35:19.739Z,4.63
2018-12-14T12:37:49.176Z,4.70
2018-12-14T12:40:18.397Z,5.27
2018-12-14T12:42:47.680Z,5.47
2018-12-14T12:45:16.899Z,5.03
2018-12-14T12:47:46.279Z,5.10
2018-12-14T12:50:15.494Z,4.93
2018-12-14T12:52:44.810Z,4.90
2018-12-14T12:55:14.018Z,4.97
2018-12-14T12:57:43.276Z,4.93
2018-12-14T13:00:12.489Z,4.70
2018-12-14T13:02:41.691Z,4.70
2018-12-14T13:05:10.898Z,5.00
2018-12-14T13:07:40.217Z,4.87
2018-12-14T13:10:09.452Z,4.80
2018-12-14T13:12:38.698Z,5.40
2018-12-14T13:15:08.413Z,5.03
2018-12-14T13:17:37.760Z,5.50
2018-12-14T13:20:07.187Z,5.97
2018-12-14T13:22:36.471Z,4.63
2018-12-14T13:25:05.862Z,5.67
2018-12-14T13:27:35.168Z,5.03
2018-12-14T13:30:04.462Z,5.40
2018-12-14T13:32:33.700Z,5.50
2018-12-14T13:35:03.001Z,5.47
2018-12-14T13:37:32.325Z,5.20
2018-12-14T13:40:01.895Z,5.20
2018-12-14T13:42:32.131Z,4.87
2018-12-14T13:45:02.281Z,4.80
2018-12-14T13:47:32.548Z,5.10
2018-12-14T13:50:02.402Z,5.50
2018-12-14T13:52:32.756Z,4.97
2018-12-14T13:55:02.389Z,4.70
2018-12-14T13:57:32.141Z,5.20
2018-12-14T14:00:01.756Z,4.53
2018-12-14T14:02:31.202Z,5.30
2018-12-14T14:05:00.901Z,5.43
2018-12-14T14:07:30.512Z,4.97
2018-12-14T14:10:00.077Z,5.43
2018-12-14T14:12:30.992Z,5.27
2018-12-14T14:15:00.908Z,5.00
2018-12-14T14:17:30.810Z,5.23
2018-12-14T14:20:00.571Z,5.23
2018-12-14T14:22:30.713Z,5.10
2018-12-14T14:25:00.576Z,5.07
2018-12-14T14:27:30.283Z,5.10
2018-12-14T14:29:59.746Z,6.00
2018-12-14T14:32:29.400Z,5.93
2018-12-14T14:34:59.097Z,5.13
2018-12-14T14:37:28.688Z,5.60
2018-12-14T14:39:58.419Z,5.63
2018-12-14T14:42:28.101Z,5.97
2018-12-14T14:44:59.964Z,5.57
2018-12-14T14:47:30.216Z,7.20
2018-12-14T14:49:59.877Z,6.23
2018-12-14T14:52:29.591Z,6.40
2018-12-14T14:54:59.223Z,5.83
2018-12-14T14:57:29.739Z,6.20
2018-12-14T14:59:59.496Z,6.20
2018-12-14T15:02:29.176Z,6.73
2018-12-14T15:04:58.862Z,7.43
2018-12-14T15:07:29.114Z,7.37
2018-12-14T15:09:58.780Z,6.80
2018-12-14T15:12:28.476Z,6.77
2018-12-14T15:15:06.448Z,10.30
2018-12-14T15:17:32.021Z,9.03
2018-12-14T15:20:01.833Z,9.80
2018-12-14T15:22:31.637Z,9.30
2018-12-14T15:25:01.664Z,8.47
2018-12-14T15:27:31.379Z,9.13
2018-12-14T15:30:01.611Z,9.73
2018-12-14T15:32:31.551Z,9.70
2018-12-14T15:35:01.154Z,9.47
2018-12-14T15:37:30.898Z,9.07
2018-12-14T15:40:00.518Z,8.47
2018-12-14T15:42:30.246Z,8.40
2018-12-14T15:45:00.219Z,7.63
2018-12-14T15:47:29.782Z,7.90
2018-12-14T15:49:59.515Z,7.10
2018-12-14T15:52:29.255Z,6.77
2018-12-14T15:54:59.156Z,6.47
2018-12-14T15:57:28.963Z,6.20
2018-12-14T15:59:58.605Z,6.20
2018-12-14T16:02:28.252Z,5.80
2018-12-14T16:04:57.820Z,6.40
2018-12-14T16:07:27.861Z,5.27
2018-12-14T16:09:57.407Z,5.50
2018-12-14T16:12:26.905Z,4.93
2018-12-14T16:14:56.416Z,5.30
2018-12-14T16:17:25.962Z,5.40
2018-12-14T16:19:55.464Z,6.03
2018-12-14T16:22:24.968Z,5.70
2018-12-14T16:24:54.521Z,5.63
2018-12-14T16:27:24.411Z,5.73
2018-12-14T16:29:53.913Z,5.10
2018-12-14T16:32:23.255Z,5.70
2018-12-14T16:34:52.610Z,5.80
2018-12-14T16:37:22.125Z,5.80
2018-12-14T16:39:51.513Z,5.90
2018-12-14T16:42:20.872Z,5.70
2018-12-14T16:44:50.389Z,5.27
2018-12-14T16:47:19.909Z,4.60
2018-12-14T16:49:49.342Z,5.30
2018-12-14T16:52:18.786Z,5.93
2018-12-14T16:54:47.991Z,5.23
2018-12-14T16:57:17.299Z,5.20
2018-12-14T16:59:46.766Z,4.37
2018-12-14T17:02:16.094Z,4.80
2018-12-14T17:04:45.338Z,5.13
2018-12-14T17:07:14.581Z,4.60
2018-12-14T17:09:43.762Z,5.07
2018-12-14T17:12:13.015Z,4.33
2018-12-14T17:14:42.223Z,4.20
2018-12-14T17:17:11.428Z,4.83
2018-12-14T17:19:40.763Z,4.00
2018-12-14T17:22:10.015Z,4.63
2018-12-14T17:24:39.243Z,4.57
2018-12-14T17:27:08.617Z,4.70
2018-12-14T17:29:37.859Z,4.10
2018-12-14T17:32:07.147Z,3.90
2018-12-14T17:34:37.003Z,4.57
2018-12-14T17:37:06.274Z,4.27
2018-12-14T17:39:35.487Z,4.30
2018-12-14T17:42:04.686Z,3.90
2018-12-14T17:44:33.985Z,4.10
2018-12-14T17:47:03.218Z,3.87
2018-12-14T17:49:33.360Z,3.97
2018-12-14T17:52:02.580Z,4.47
2018-12-14T17:54:31.802Z,4.30
2018-12-14T17:57:01.077Z,4.70
2018-12-14T17:59:30.314Z,5.70
2018-12-14T18:01:59.627Z,6.77
2018-12-14T18:04:28.865Z,8.13
2018-12-14T18:06:58.279Z,11.30
2018-12-14T18:09:28.491Z,12.60
2018-12-14T18:11:57.684Z,12.63
2018-12-14T18:14:26.930Z,12.40
2018-12-14T18:16:56.138Z,11.73
2018-12-14T18:19:25.471Z,12.30
2018-12-14T18:21:54.943Z,11.63
2018-12-14T18:24:24.198Z,10.87
2018-12-14T18:26:53.738Z,10.23
2018-12-14T18:29:23.203Z,10.07
2018-12-14T18:31:52.692Z,8.63
2018-12-14T18:34:22.367Z,8.20
2018-12-14T18:36:51.942Z,8.70
2018-12-14T18:39:21.671Z,7.50
2018-12-14T18:41:51.118Z,7.20
2018-12-14T18:44:20.724Z,7.57
2018-12-14T18:46:50.266Z,8.17
2018-12-14T18:49:19.974Z,6.97
2018-12-14T18:51:49.573Z,6.97
2018-12-14T18:54:19.072Z,7.10
2018-12-14T18:56:48.478Z,7.47
2018-12-14T18:59:18.322Z,6.93
2018-12-14T19:01:47.787Z,6.43
2018-12-14T19:04:17.368Z,6.47
2018-12-14T19:06:46.796Z,6.73
2018-12-14T19:09:16.459Z,6.30
2018-12-14T19:11:46.408Z,6.97
2018-12-14T19:14:16.695Z,6.80
2018-12-14T19:16:46.941Z,6.30
2018-12-14T19:19:18.121Z,6.43
2018-12-14T19:21:48.834Z,6.37
2018-12-14T19:24:19.190Z,5.93
2018-12-14T19:26:50.325Z,6.30
2018-12-14T19:29:20.894Z,5.77
2018-12-14T19:31:50.873Z,5.33
2018-12-14T19:34:21.231Z,5.60
2018-12-14T19:36:51.676Z,5.43
2018-12-14T19:39:22.389Z,5.23
2018-12-14T19:41:52.843Z,5.70
2018-12-14T19:44:22.636Z,5.00
2018-12-14T19:46:52.158Z,5.20
2018-12-14T19:49:21.762Z,5.77
2018-12-14T19:51:51.530Z,5.40
2018-12-14T19:54:21.333Z,4.60
2018-12-14T19:56:50.837Z,5.17
2018-12-14T19:59:20.473Z,4.90
2018-12-14T20:01:51.142Z,4.60
2018-12-14T20:04:20.758Z,4.57
2018-12-14T20:06:50.195Z,4.63
2018-12-14T20:09:20.093Z,4.57
2018-12-14T20:11:49.739Z,4.40
2018-12-14T20:14:19.544Z,4.33
2018-12-14T20:16:49.143Z,5.07
2018-12-14T20:19:18.961Z,4.43
2018-12-14T20:21:49.227Z,4.50
2018-12-14T20:24:18.761Z,4.30
2018-12-14T20:26:48.484Z,4.23
2018-12-14T20:29:18.129Z,4.77
2018-12-14T20:31:48.533Z,4.23
2018-12-14T20:34:17.932Z,4.83
2018-12-14T20:36:47.290Z,4.10
2018-12-14T20:39:16.711Z,4.37
2018-12-14T20:41:46.202Z,4.70
2018-12-14T20:44:15.724Z,4.13
2018-12-14T20:46:45.209Z,4.23
2018-12-14T20:49:14.798Z,4.23
2018-12-14T20:51:44.268Z,4.43
2018-12-14T20:54:13.794Z,4.10
2018-12-14T20:56:43.158Z,4.00
2018-12-14T20:59:12.555Z,4.30
2018-12-14T21:01:42.047Z,4.13
2018-12-14T21:04:11.412Z,4.83
2018-12-14T21:06:40.847Z,4.17
2018-12-14T21:09:10.421Z,4.47
2018-12-14T21:11:39.842Z,4.30
2018-12-14T21:14:09.234Z,4.17
2018-12-14T21:16:38.974Z,7.23
2018-12-14T21:19:08.535Z,5.97
2018-12-14T21:21:37.935Z,6.20
2018-12-14T21:24:07.265Z,5.63
2018-12-14T21:26:36.619Z,5.67
2018-12-14T21:29:06.063Z,5.27
2018-12-14T21:31:35.600Z,5.50
2018-12-14T21:34:05.022Z,4.97
2018-12-14T21:36:34.338Z,5.40
2018-12-14T21:39:04.492Z,4.80
2018-12-14T21:41:33.877Z,4.70
2018-12-14T21:44:03.518Z,4.80
2018-12-14T21:46:32.925Z,4.63
2018-12-14T21:49:02.347Z,4.23
2018-12-14T21:51:31.672Z,4.63
2018-12-14T21:54:01.002Z,4.40
2018-12-14T21:56:30.359Z,4.37
2018-12-14T21:58:59.828Z,4.37
2018-12-14T22:01:29.223Z,4.50
2018-12-14T22:03:58.581Z,4.43
2018-12-14T22:06:28.004Z,4.53
2018-12-14T22:08:57.387Z,4.70
2018-12-14T22:11:26.713Z,4.60
2018-12-14T22:13:56.054Z,4.50
2018-12-14T22:16:25.416Z,3.93
2018-12-14T22:18:54.838Z,4.27
2018-12-14T22:21:24.435Z,4.37
2018-12-14T22:23:53.792Z,4.07
2018-12-14T22:26:23.185Z,4.17
2018-12-14T22:28:52.642Z,4.47
2018-12-14T22:31:21.995Z,3.77
2018-12-14T22:33:51.374Z,4.13
2018-12-14T22:36:20.710Z,4.33
2018-12-14T22:38:50.256Z,4.27
2018-12-14T22:41:19.615Z,4.70
2018-12-14T22:43:48.976Z,4.80
2018-12-14T22:46:18.155Z,4.70
2018-12-14T22:48:47.307Z,4.20
2018-12-14T22:51:16.551Z,4.50
2018-12-14T22:53:45.779Z,4.60
2018-12-14T22:56:14.979Z,4.60
2018-12-14T22:58:44.319Z,4.60
2018-12-14T23:01:13.643Z,4.63
2018-12-14T23:03:42.968Z,4.50
2018-12-14T23:06:12.323Z,4.73
2018-12-14T23:08:41.810Z,5.47
2018-12-14T23:11:11.128Z,4.93
2018-12-14T23:13:40.505Z,4.97
2018-12-14T23:16:09.822Z,4.47
2018-12-14T23:18:39.303Z,4.47
2018-12-14T23:21:08.602Z,4.63
2018-12-14T23:23:38.003Z,4.30
2018-12-14T23:26:07.504Z,4.73
2018-12-14T23:28:37.017Z,4.60
2018-12-14T23:31:06.321Z,4.07
2018-12-14T23:33:35.711Z,4.80
2018-12-14T23:36:05.074Z,4.67
2018-12-14T23:38:34.509Z,4.57
2018-12-14T23:41:03.888Z,4.80
2018-12-14T23:43:33.247Z,4.40
2018-12-14T23:46:02.633Z,4.20
2018-12-14T23:48:31.935Z,4.17
2018-12-14T23:51:01.230Z,4.43
2018-12-14T23:53:30.546Z,4.27
2018-12-14T23:55:59.914Z,3.97
2018-12-14T23:58:30.443Z,4.50
